Decoded Metar for KDYA ( in ) (IATA:) | Meteo·Mobile Aviation Weather
aviador You're here:

KDYA Decoded Metar

in
Report Time2018-08-17 14:35:00
UTC Time2018-08-17 14:38:13
Flight Rules ifr IFR
Wind170° at 05 kt
W.Decomp.*RWY 22: 3.2 kt HW 3.8 kt LCW
W.Rank170° ranks 5
Current wind is below 170° avg. (5.4)
VisibilityN/A
Phenomena:N/A
Clouds:Overcast 008 Hf
Expected CloudBase > 1,600 ft AGL from Temp-Dew spread
Ceiling800 ft
Temp27°C
Dew Point23°C (79% RH)
Heat Index29.6°C
QNH1021 hPa
Raw Report
KDYA 171435Z AUTO 17005KT OVC008 27/23 A3015 RMK AO2 T02700234
PWINO=

Extra information for KDYA:More info

Social comments